Terminal Aerodrome Forecast
Issued by NWS Mt. Holly, NJ

Current Version | Previous Version | Text Only | Print | Product List | Glossary On
Versions: 1 2 3 4 5 6 7 8 9 10 11 12 13 14 15 16 17 18 19 20 21 22 23 24 25 26 27 28
000
FTUS41 KPHI 250500
TAFRDG
TAF
KRDG 250539Z 2506/2606 28012KT P6SM BKN035
      TEMPO 2506/2509 OVC030
     FM251500 32010KT P6SM SCT050 BKN250
     FM252300 35005KT P6SM SCT040 OVC150
     FM260300 01006KT 5SM -SN OVC030
     FM260400 01006KT 2SM -SN SCT009 OVC015=

USA.gov is the U.S. government's official web portal to all federal, state and local government web resources and services.